HUAL Seoul — LADO6 — position and weather

sailwx.info

Track history (hours):
 
Tides and Currents Weather Stations Pressure Air Temp Water Temp Dewpoint Dewpoint Depression Visibility Wind Speed Wind Dir Waves Ship Positions

HUAL Seoul

Last reported at 2017-Nov-17 13:26 UTC. Time now 2017-Nov-22 20:31 UTC.
Position S 36°12' E 174°57'.

Type: Cargo ship. MMSI: 257496000.

Date/timePositionNaut miles runAvg speedWind from/ knotsBaromVisibWave heightAir tempDewpointWater temp
2017-Nov-17 13:26S 36°12' E 174°57'512.1
2017-Nov-17 13:00S 36°17' E 174°58'510.0
2017-Nov-17 12:30S 36°22' E 174°60'5 9.7
2017-Nov-17 12:00S 36°27' E 174°60'5 9.7
2017-Nov-17 11:30S 36°32' E 174°59'5 9.8
2017-Nov-17 11:00S 36°36' E 174°57'5 9.9
2017-Nov-17 10:30S 36°40' E 174°54'510.0
2017-Nov-17 10:00S 36°44' E 174°50'510.1
2017-Nov-17 09:30S 36°50' E 174°50'3 5.8
2017-Nov-17 09:00S 36°50' E 174°46'0 0.0
2017-Nov-17 08:30S 36°50' E 174°46'0 0.0
2017-Nov-17 08:00S 36°50' E 174°46'0 0.0
2017-Nov-17 07:30S 36°50' E 174°46'0 0.0
2017-Nov-17 07:00S 36°50' E 174°46'0 0.0
2017-Nov-17 06:30S 36°50' E 174°46'0 0.0
2017-Nov-17 06:00S 36°50' E 174°46'0 0.0
2017-Nov-17 05:30S 36°50' E 174°46'0 0.0
2017-Nov-17 05:00S 36°50' E 174°46'0 0.0
2017-Nov-17 04:30S 36°50' E 174°46'0 0.0
2017-Nov-17 04:00S 36°50' E 174°46'0 0.0
2017-Nov-17 03:30S 36°50' E 174°46'0 0.0
2017-Nov-17 03:00S 36°50' E 174°46'0 0.0
2017-Nov-17 02:30S 36°50' E 174°46'0 0.0
2017-Nov-17 02:00S 36°50' E 174°46'0 0.0
2017-Nov-17 01:30S 36°50' E 174°46'0 0.0
2017-Nov-17 01:00S 36°50' E 174°46'2 4.5
2017-Nov-17 00:30S 36°50' E 174°49'611.2
2017-Nov-17 00:00S 36°44' E 174°50'4 8.6
2017-Nov-16 23:30S 36°41' E 174°53'3 6.2
2017-Nov-16 23:00S 36°38' E 174°56'5 9.1
2017-Nov-16 22:30S 36°34' E 174°58'5 9.1
2017-Nov-16 22:00S 36°30' E 174°59'5 9.4
2017-Nov-16 21:30S 36°25' E 174°60'5 9.7
2017-Nov-16 21:00S 36°20' E 174°59'5 9.7
2017-Nov-16 20:30S 36°15' E 174°58'5 9.5
2017-Nov-16 20:00S 36°11' E 174°57'5 9.6
2017-Nov-16 19:29S 36°06' E 174°56'  
2017-Nov-13 02:00S 27°22' E 153°10'4 8.8
2017-Nov-13 01:31S 27°19' E 153°12'816.6
2017-Nov-13 01:00S 27°14' E 153°20'815.6
2017-Nov-13 00:30S 27°06' E 153°19'815.0
2017-Nov-13 00:00S 26°60' E 153°14'815.9
2017-Nov-12 23:28S 26°53' E 153°10'25 4.5
2017-Nov-12 17:52S 26°59' E 153°38'3 7.2
2017-Nov-12 17:27S 27°02' E 153°38'3 7.2
2017-Nov-12 17:00S 27°05' E 153°38'4 7.2
2017-Nov-12 16:29S 27°08' E 153°39'4 7.1
2017-Nov-12 15:55S 27°12' E 153°39'3 7.0
2017-Nov-12 15:26S 27°16' E 153°40'3 6.9
2017-Nov-12 15:00S 27°19' E 153°40'3 6.9
2017-Nov-12 14:30S 27°22' E 153°41'3 6.9
2017-Nov-12 14:01S 27°26' E 153°41'3 6.9
2017-Nov-12 13:30S 27°29' E 153°41'4 7.2
2017-Nov-12 13:00S 27°33' E 153°42'4 7.0
2017-Nov-12 12:30S 27°36' E 153°42'4 7.2
2017-Nov-12 12:00S 27°40' E 153°42'4 7.1
2017-Nov-12 11:30S 27°43' E 153°42'4 7.2
2017-Nov-12 11:00S 27°47' E 153°43'4 7.2
2017-Nov-12 10:30S 27°50' E 153°43'3 6.8
2017-Nov-12 10:00S 27°54' E 153°44'3 6.6
2017-Nov-12 09:30S 27°57' E 153°44'3 6.6
2017-Nov-12 09:01S 28°00' E 153°44'3 6.9
2017-Nov-12 08:30S 28°04' E 153°44'4 7.4
2017-Nov-12 08:00S 28°07' E 153°44'4 7.6
2017-Nov-12 07:30S 28°11' E 153°44'4 7.6
2017-Nov-12 07:00S 28°15' E 153°44'4 7.5
2017-Nov-12 06:30S 28°19' E 153°45'4 7.5
2017-Nov-12 06:00S 28°23' E 153°45'4 8.4
2017-Nov-12 05:30S 28°27' E 153°45'4 8.6
2017-Nov-12 05:00S 28°31' E 153°46'4 8.7
2017-Nov-12 04:30S 28°35' E 153°46'4 8.7
2017-Nov-12 04:00S 28°40' E 153°46'4 8.5
2017-Nov-12 03:30S 28°44' E 153°45'23212.3
2017-Nov-11 08:36S 32°30' E 152°42'113.0
2017-Nov-11 08:29S 32°31' E 152°41'612.4
2017-Nov-11 08:00S 32°36' E 152°37'612.4
2017-Nov-11 07:30S 32°41' E 152°33'612.2
2017-Nov-11 07:00S 32°46' E 152°28'612.3
2017-Nov-11 06:30S 32°51' E 152°24'612.0
2017-Nov-11 06:00S 32°56' E 152°20'612.1
2017-Nov-11 05:31S 33°01' E 152°16'612.3
2017-Nov-11 05:00S 33°06' E 152°11'612.3
2017-Nov-11 04:30S 33°11' E 152°07'612.4
2017-Nov-11 04:00S 33°16' E 152°03'4211.3
2017-Nov-11 00:19S 33°50' E 151°34'612.7
2017-Nov-10 23:52S 33°55' E 151°31'243 9.0
2017-Nov-09 20:54S 37°44' E 149°52'715.9
2017-Nov-09 20:27S 37°49' E 149°45'916.3
2017-Nov-09 19:55S 37°54' E 149°37'716.5
2017-Nov-09 19:28S 37°59' E 149°29'916.6
2017-Nov-09 18:57S 38°05' E 149°21'716.2
2017-Nov-09 18:30S 38°09' E 149°14'816.2
2017-Nov-09 18:00S 38°14' E 149°06'816.2
2017-Nov-09 17:30S 38°19' E 148°58'916.6
2017-Nov-09 16:58S 38°25' E 148°49'816.5
2017-Nov-09 16:30S 38°30' E 148°42'816.7
2017-Nov-09 16:00S 38°35' E 148°33'1017.1
2017-Nov-09 15:26S 38°42' E 148°24'816.7
2017-Nov-09 14:58S 38°46' E 148°16'816.2
2017-Nov-09 14:31S 38°49' E 148°07'916.2
2017-Nov-09 13:59S 38°52' E 147°57'1416.2
2017-Nov-09 13:08S 38°57' E 147°41'1616.3
2017-Nov-09 12:11S 39°03' E 147°22'416.4
2017-Nov-09 11:57S 39°04' E 147°17'916.3
2017-Nov-09 11:26S 39°07' E 147°07'7315.1
2017-Nov-09 06:36S 38°58' E 145°34'516.2
2017-Nov-09 06:17S 38°55' E 145°28'2416.5
2017-Nov-09 04:50S 38°42' E 145°03'716.7
2017-Nov-09 04:25S 38°38' E 144°56'1217.9
2017-Nov-09 03:43S 38°30' E 144°43'518.3
2017-Nov-09 03:27S 38°26' E 144°39'2811.1
2017-Nov-09 00:56S 38°02' E 144°55'715.6
2017-Nov-09 00:28S 37°54' E 144°56'4 0.7
2017-Nov-08 18:35S 37°50' E 144°54'0 0.0
2017-Nov-08 16:44S 37°50' E 144°54'0 0.0
2017-Nov-08 16:05S 37°50' E 144°54'0 0.1
2017-Nov-08 15:59S 37°50' E 144°54'0 0.0
2017-Nov-08 15:20S 37°50' E 144°54'0 0.0
2017-Nov-08 14:56S 37°50' E 144°54'0 0.0
2017-Nov-08 14:29S 37°50' E 144°54'0 0.0
2017-Nov-08 13:59S 37°50' E 144°54'0 0.0
2017-Nov-08 13:29S 37°50' E 144°54'0 0.0
2017-Nov-08 12:56S 37°50' E 144°54'0 0.0
2017-Nov-08 12:29S 37°50' E 144°54'0 0.0
2017-Nov-08 11:53S 37°50' E 144°54'0 0.0
2017-Nov-08 11:26S 37°50' E 144°54'0 0.0
2017-Nov-08 10:32S 37°50' E 144°54'0 0.0
2017-Nov-08 10:29S 37°50' E 144°54'0 0.0
2017-Nov-08 09:59S 37°50' E 144°54'0 0.0
2017-Nov-08 07:29S 37°50' E 144°54'0 0.0
2017-Nov-08 02:23S 37°50' E 144°54'0 0.0
2017-Nov-08 01:55S 37°50' E 144°54'3 3.8
2017-Nov-08 01:05S 37°53' E 144°56'111.7
2017-Nov-08 01:00S 37°55' E 144°56'4 7.6
2017-Nov-08 00:30S 37°58' E 144°55'  
Track history (hours):
 
Tides and Currents Weather Stations Pressure Air Temp Water Temp Dewpoint Dewpoint Depression Visibility Wind Speed Wind Dir Waves Ship Positions

HUAL Seoul

Last reported at 2017-Nov-17 13:26 UTC. Time now 2017-Nov-22 20:31 UTC.
Position S 36°12' E 174°57'.

Type: Cargo ship. MMSI: 257496000.

Date/timePositionNaut miles runAvg speedWind from/ knotsBaromVisibWave heightAir tempDewpointWater temp
2017-Nov-17 13:26S 36°12' E 174°57'512.1
2017-Nov-17 13:00S 36°17' E 174°58'510.0
2017-Nov-17 12:30S 36°22' E 174°60'5 9.7
2017-Nov-17 12:00S 36°27' E 174°60'5 9.7
2017-Nov-17 11:30S 36°32' E 174°59'5 9.8
2017-Nov-17 11:00S 36°36' E 174°57'5 9.9
2017-Nov-17 10:30S 36°40' E 174°54'510.0
2017-Nov-17 10:00S 36°44' E 174°50'510.1
2017-Nov-17 09:30S 36°50' E 174°50'3 5.8
2017-Nov-17 09:00S 36°50' E 174°46'0 0.0
2017-Nov-17 08:30S 36°50' E 174°46'0 0.0
2017-Nov-17 08:00S 36°50' E 174°46'0 0.0
2017-Nov-17 07:30S 36°50' E 174°46'0 0.0
2017-Nov-17 07:00S 36°50' E 174°46'0 0.0
2017-Nov-17 06:30S 36°50' E 174°46'0 0.0
2017-Nov-17 06:00S 36°50' E 174°46'0 0.0
2017-Nov-17 05:30S 36°50' E 174°46'0 0.0
2017-Nov-17 05:00S 36°50' E 174°46'0 0.0
2017-Nov-17 04:30S 36°50' E 174°46'0 0.0
2017-Nov-17 04:00S 36°50' E 174°46'0 0.0
2017-Nov-17 03:30S 36°50' E 174°46'0 0.0
2017-Nov-17 03:00S 36°50' E 174°46'0 0.0
2017-Nov-17 02:30S 36°50' E 174°46'0 0.0
2017-Nov-17 02:00S 36°50' E 174°46'0 0.0
2017-Nov-17 01:30S 36°50' E 174°46'0 0.0
2017-Nov-17 01:00S 36°50' E 174°46'2 4.5
2017-Nov-17 00:30S 36°50' E 174°49'611.2
2017-Nov-17 00:00S 36°44' E 174°50'4 8.6
2017-Nov-16 23:30S 36°41' E 174°53'3 6.2
2017-Nov-16 23:00S 36°38' E 174°56'5 9.1
2017-Nov-16 22:30S 36°34' E 174°58'5 9.1
2017-Nov-16 22:00S 36°30' E 174°59'5 9.4
2017-Nov-16 21:30S 36°25' E 174°60'5 9.7
2017-Nov-16 21:00S 36°20' E 174°59'5 9.7
2017-Nov-16 20:30S 36°15' E 174°58'5 9.5
2017-Nov-16 20:00S 36°11' E 174°57'5 9.6
2017-Nov-16 19:29S 36°06' E 174°56'  
2017-Nov-13 02:00S 27°22' E 153°10'4 8.8
2017-Nov-13 01:31S 27°19' E 153°12'816.6
2017-Nov-13 01:00S 27°14' E 153°20'815.6
2017-Nov-13 00:30S 27°06' E 153°19'815.0
2017-Nov-13 00:00S 26°60' E 153°14'815.9
2017-Nov-12 23:28S 26°53' E 153°10'25 4.5
2017-Nov-12 17:52S 26°59' E 153°38'3 7.2
2017-Nov-12 17:27S 27°02' E 153°38'3 7.2
2017-Nov-12 17:00S 27°05' E 153°38'4 7.2
2017-Nov-12 16:29S 27°08' E 153°39'4 7.1
2017-Nov-12 15:55S 27°12' E 153°39'3 7.0
2017-Nov-12 15:26S 27°16' E 153°40'3 6.9
2017-Nov-12 15:00S 27°19' E 153°40'3 6.9
2017-Nov-12 14:30S 27°22' E 153°41'3 6.9
2017-Nov-12 14:01S 27°26' E 153°41'3 6.9
2017-Nov-12 13:30S 27°29' E 153°41'4 7.2
2017-Nov-12 13:00S 27°33' E 153°42'4 7.0
2017-Nov-12 12:30S 27°36' E 153°42'4 7.2
2017-Nov-12 12:00S 27°40' E 153°42'4 7.1
2017-Nov-12 11:30S 27°43' E 153°42'4 7.2
2017-Nov-12 11:00S 27°47' E 153°43'4 7.2
2017-Nov-12 10:30S 27°50' E 153°43'3 6.8
2017-Nov-12 10:00S 27°54' E 153°44'3 6.6
2017-Nov-12 09:30S 27°57' E 153°44'3 6.6
2017-Nov-12 09:01S 28°00' E 153°44'3 6.9
2017-Nov-12 08:30S 28°04' E 153°44'4 7.4
2017-Nov-12 08:00S 28°07' E 153°44'4 7.6
2017-Nov-12 07:30S 28°11' E 153°44'4 7.6
2017-Nov-12 07:00S 28°15' E 153°44'4 7.5
2017-Nov-12 06:30S 28°19' E 153°45'4 7.5
2017-Nov-12 06:00S 28°23' E 153°45'4 8.4
2017-Nov-12 05:30S 28°27' E 153°45'4 8.6
2017-Nov-12 05:00S 28°31' E 153°46'4 8.7
2017-Nov-12 04:30S 28°35' E 153°46'4 8.7
2017-Nov-12 04:00S 28°40' E 153°46'4 8.5
2017-Nov-12 03:30S 28°44' E 153°45'23212.3
2017-Nov-11 08:36S 32°30' E 152°42'113.0
2017-Nov-11 08:29S 32°31' E 152°41'612.4
2017-Nov-11 08:00S 32°36' E 152°37'612.4
2017-Nov-11 07:30S 32°41' E 152°33'612.2
2017-Nov-11 07:00S 32°46' E 152°28'612.3
2017-Nov-11 06:30S 32°51' E 152°24'612.0
2017-Nov-11 06:00S 32°56' E 152°20'612.1
2017-Nov-11 05:31S 33°01' E 152°16'612.3
2017-Nov-11 05:00S 33°06' E 152°11'612.3
2017-Nov-11 04:30S 33°11' E 152°07'612.4
2017-Nov-11 04:00S 33°16' E 152°03'4211.3
2017-Nov-11 00:19S 33°50' E 151°34'612.7
2017-Nov-10 23:52S 33°55' E 151°31'243 9.0
2017-Nov-09 20:54S 37°44' E 149°52'715.9
2017-Nov-09 20:27S 37°49' E 149°45'916.3
2017-Nov-09 19:55S 37°54' E 149°37'716.5
2017-Nov-09 19:28S 37°59' E 149°29'916.6
2017-Nov-09 18:57S 38°05' E 149°21'716.2
2017-Nov-09 18:30S 38°09' E 149°14'816.2
2017-Nov-09 18:00S 38°14' E 149°06'816.2
2017-Nov-09 17:30S 38°19' E 148°58'916.6
2017-Nov-09 16:58S 38°25' E 148°49'816.5
2017-Nov-09 16:30S 38°30' E 148°42'816.7
2017-Nov-09 16:00S 38°35' E 148°33'1017.1
2017-Nov-09 15:26S 38°42' E 148°24'816.7
2017-Nov-09 14:58S 38°46' E 148°16'816.2
2017-Nov-09 14:31S 38°49' E 148°07'916.2
2017-Nov-09 13:59S 38°52' E 147°57'1416.2
2017-Nov-09 13:08S 38°57' E 147°41'1616.3
2017-Nov-09 12:11S 39°03' E 147°22'416.4
2017-Nov-09 11:57S 39°04' E 147°17'916.3
2017-Nov-09 11:26S 39°07' E 147°07'7315.1
2017-Nov-09 06:36S 38°58' E 145°34'516.2
2017-Nov-09 06:17S 38°55' E 145°28'2416.5
2017-Nov-09 04:50S 38°42' E 145°03'716.7
2017-Nov-09 04:25S 38°38' E 144°56'1217.9
2017-Nov-09 03:43S 38°30' E 144°43'518.3
2017-Nov-09 03:27S 38°26' E 144°39'2811.1
2017-Nov-09 00:56S 38°02' E 144°55'715.6
2017-Nov-09 00:28S 37°54' E 144°56'4 0.7
2017-Nov-08 18:35S 37°50' E 144°54'0 0.0
2017-Nov-08 16:44S 37°50' E 144°54'0 0.0
2017-Nov-08 16:05S 37°50' E 144°54'0 0.1
2017-Nov-08 15:59S 37°50' E 144°54'0 0.0
2017-Nov-08 15:20S 37°50' E 144°54'0 0.0
2017-Nov-08 14:56S 37°50' E 144°54'0 0.0
2017-Nov-08 14:29S 37°50' E 144°54'0 0.0
2017-Nov-08 13:59S 37°50' E 144°54'0 0.0
2017-Nov-08 13:29S 37°50' E 144°54'0 0.0
2017-Nov-08 12:56S 37°50' E 144°54'0 0.0
2017-Nov-08 12:29S 37°50' E 144°54'0 0.0
2017-Nov-08 11:53S 37°50' E 144°54'0 0.0
2017-Nov-08 11:26S 37°50' E 144°54'0 0.0
2017-Nov-08 10:32S 37°50' E 144°54'0 0.0
2017-Nov-08 10:29S 37°50' E 144°54'0 0.0
2017-Nov-08 09:59S 37°50' E 144°54'0 0.0
2017-Nov-08 07:29S 37°50' E 144°54'0 0.0
2017-Nov-08 02:23S 37°50' E 144°54'0 0.0
2017-Nov-08 01:55S 37°50' E 144°54'3 3.8
2017-Nov-08 01:05S 37°53' E 144°56'111.7
2017-Nov-08 01:00S 37°55' E 144°56'4 7.6
2017-Nov-08 00:30S 37°58' E 144°55'  

Dump ship's entire track history